sensor_id;sensor_type;location;lat;lon;timestamp;pressure;altitude;pressure_sealevel;temperature;humidity
3697;BME280;60662;48.810;8.872;2024-02-23T07:54:13;94824.38;;;3.01;86.01
3697;BME280;60662;48.810;8.872;2024-02-23T07:58:54;94839.25;;;3.34;84.75
3697;BME280;60662;48.810;8.872;2024-02-23T08:02:53;81399.16;;;-145.49;0.00
3697;BME280;60662;48.810;8.872;2024-02-23T08:03:58;81399.16;;;-145.49;0.00
3697;BME280;60662;48.810;8.872;2024-02-23T08:04:59;81399.16;;;-145.49;0.00
3697;BME280;60662;48.810;8.872;2024-02-23T08:06:00;81399.16;;;-145.49;0.00
3697;BME280;60662;48.810;8.872;2024-02-23T08:08:42;94830.50;;;3.94;80.74
3697;BME280;60662;48.810;8.872;2024-02-23T08:09:44;94851.03;;;4.85;78.97
3697;BME280;60662;48.810;8.872;2024-02-23T08:10:45;94844.00;;;5.22;77.12
3697;BME280;60662;48.810;8.872;2024-02-23T08:11:47;94851.41;;;5.12;76.18
3697;BME280;60662;48.810;8.872;2024-02-23T08:12:48;94855.63;;;5.31;76.53
3697;BME280;60662;48.810;8.872;2024-02-23T08:13:50;94814.88;;;6.14;73.39
3697;BME280;60662;48.810;8.872;2024-02-23T08:14:51;94853.00;;;6.59;71.23
3697;BME280;60662;48.810;8.872;2024-02-23T08:15:55;94851.25;;;7.04;69.66
3697;BME280;60662;48.810;8.872;2024-02-23T08:16:56;94853.63;;;6.93;69.99
3697;BME280;60662;48.810;8.872;2024-02-23T08:17:58;94849.41;;;7.35;68.47
3697;BME280;60662;48.810;8.872;2024-02-23T08:18:59;94849.97;;;6.66;69.56
3697;BME280;60662;48.810;8.872;2024-02-23T08:20:07;94853.53;;;6.80;69.71
3697;BME280;60662;48.810;8.872;2024-02-23T08:21:10;94850.19;;;6.78;69.71
3697;BME280;60662;48.810;8.872;2024-02-23T08:22:11;94845.28;;;6.43;68.89
3697;BME280;60662;48.810;8.872;2024-02-23T08:23:13;94843.47;;;5.97;70.77
3697;BME280;60662;48.810;8.872;2024-02-23T08:24:15;94844.03;;;5.70;72.29
3697;BME280;60662;48.810;8.872;2024-02-23T08:25:16;94844.72;;;6.05;71.12
3697;BME280;60662;48.810;8.872;2024-02-23T08:26:18;94852.16;;;6.28;70.76
3697;BME280;60662;48.810;8.872;2024-02-23T08:27:19;94849.03;;;6.67;69.98
3697;BME280;60662;48.810;8.872;2024-02-23T08:28:22;94848.25;;;6.81;68.66
3697;BME280;60662;48.810;8.872;2024-02-23T08:29:25;94846.19;;;7.31;67.99
3697;BME280;60662;48.810;8.872;2024-02-23T08:30:27;94829.25;;;7.67;67.19
3697;BME280;60662;48.810;8.872;2024-02-23T08:31:28;94844.66;;;7.56;66.85
3697;BME280;60662;48.810;8.872;2024-02-23T08:32:30;94836.41;;;6.92;68.28
3697;BME280;60662;48.810;8.872;2024-02-23T08:33:31;94840.81;;;6.45;69.27
3697;BME280;60662;48.810;8.872;2024-02-23T08:34:33;94838.22;;;6.45;69.68
3697;BME280;60662;48.810;8.872;2024-02-23T08:35:35;94836.69;;;7.01;69.23
3697;BME280;60662;48.810;8.872;2024-02-23T08:36:37;94841.22;;;7.70;66.65
3697;BME280;60662;48.810;8.872;2024-02-23T08:37:38;94831.44;;;7.17;67.04
3697;BME280;60662;48.810;8.872;2024-02-23T08:38:40;94830.84;;;6.98;67.74
3697;BME280;60662;48.810;8.872;2024-02-23T08:39:42;94821.75;;;6.46;68.73
3697;BME280;60662;48.810;8.872;2024-02-23T08:40:43;94821.50;;;6.20;70.37
3697;BME280;60662;48.810;8.872;2024-02-23T08:41:46;94816.44;;;6.33;70.41
3697;BME280;60662;48.810;8.872;2024-02-23T08:42:47;94806.63;;;6.83;68.98
3697;BME280;60662;48.810;8.872;2024-02-23T08:43:51;94810.44;;;6.32;69.17
3697;BME280;60662;48.810;8.872;2024-02-23T08:44:52;94805.38;;;5.83;70.20
3697;BME280;60662;48.810;8.872;2024-02-23T08:45:55;94802.72;;;5.52;71.65
3697;BME280;60662;48.810;8.872;2024-02-23T08:47:02;94801.34;;;5.45;72.16
3697;BME280;60662;48.810;8.872;2024-02-23T08:48:04;94800.38;;;5.64;72.17
3697;BME280;60662;48.810;8.872;2024-02-23T08:49:05;94791.59;;;5.66;72.18
3697;BME280;60662;48.810;8.872;2024-02-23T08:50:07;94782.81;;;5.37;72.84
3697;BME280;60662;48.810;8.872;2024-02-23T08:51:09;94788.50;;;5.44;72.48
3697;BME280;60662;48.810;8.872;2024-02-23T08:52:10;94786.53;;;5.15;73.22
3697;BME280;60662;48.810;8.872;2024-02-23T08:53:12;94775.69;;;4.75;74.37
3697;BME280;60662;48.810;8.872;2024-02-23T08:54:13;94790.22;;;4.78;74.25
3697;BME280;60662;48.810;8.872;2024-02-23T08:55:15;94792.09;;;4.92;75.57
3697;BME280;60662;48.810;8.872;2024-02-23T08:56:16;94781.75;;;5.07;74.30
3697;BME280;60662;48.810;8.872;2024-02-23T08:57:18;94778.19;;;5.90;72.41
3697;BME280;60662;48.810;8.872;2024-02-23T08:58:21;94785.00;;;6.23;72.59
3697;BME280;60662;48.810;8.872;2024-02-23T08:59:23;94792.66;;;6.41;71.31
3697;BME280;60662;48.810;8.872;2024-02-23T09:00:24;94796.06;;;6.72;70.13
3697;BME280;60662;48.810;8.872;2024-02-23T09:01:26;94798.00;;;7.40;68.10
3697;BME280;60662;48.810;8.872;2024-02-23T09:02:27;94799.44;;;7.17;67.91
3697;BME280;60662;48.810;8.872;2024-02-23T09:03:29;94799.16;;;7.22;67.07
3697;BME280;60662;48.810;8.872;2024-02-23T09:04:31;94800.19;;;7.19;66.96
3697;BME280;60662;48.810;8.872;2024-02-23T09:05:33;94787.34;;;7.45;66.67
3697;BME280;60662;48.810;8.872;2024-02-23T09:06:34;94791.44;;;7.34;66.05
3697;BME280;60662;48.810;8.872;2024-02-23T09:07:40;94781.09;;;8.44;64.39
3697;BME280;60662;48.810;8.872;2024-02-23T09:08:42;94789.69;;;8.72;63.49
3697;BME280;60662;48.810;8.872;2024-02-23T09:09:43;94791.06;;;9.03;62.52
3697;BME280;60662;48.810;8.872;2024-02-23T09:10:45;94794.78;;;9.88;60.51
3697;BME280;60662;48.810;8.872;2024-02-23T09:11:46;94802.91;;;9.33;60.35
3697;BME280;60662;48.810;8.872;2024-02-23T09:12:48;94812.97;;;9.63;60.13
3697;BME280;60662;48.810;8.872;2024-02-23T09:13:49;94809.97;;;10.07;58.56
3697;BME280;60662;48.810;8.872;2024-02-23T09:14:51;94816.34;;;9.53;58.95
3697;BME280;60662;48.810;8.872;2024-02-23T09:15:53;94809.19;;;9.80;58.91
3697;BME280;60662;48.810;8.872;2024-02-23T09:16:54;94805.81;;;9.54;59.59
3697;BME280;60662;48.810;8.872;2024-02-23T09:17:56;94814.63;;;10.63;58.17
3697;BME280;60662;48.810;8.872;2024-02-23T09:18:57;94815.19;;;10.55;57.42
3697;BME280;60662;48.810;8.872;2024-02-23T09:19:59;94814.53;;;10.76;56.35
3697;BME280;60662;48.810;8.872;2024-02-23T09:21:01;94792.97;;;9.64;58.16
3697;BME280;60662;48.810;8.872;2024-02-23T09:22:02;94812.72;;;10.65;58.47
3697;BME280;60662;48.810;8.872;2024-02-23T09:23:04;94820.41;;;9.94;58.78
3697;BME280;60662;48.810;8.872;2024-02-23T09:24:06;94821.78;;;9.24;61.21
3697;BME280;60662;48.810;8.872;2024-02-23T09:25:07;94817.81;;;8.79;61.72
3697;BME280;60662;48.810;8.872;2024-02-23T09:26:10;94826.88;;;10.01;60.44
3697;BME280;60662;48.810;8.872;2024-02-23T09:27:14;94825.84;;;9.02;59.98
3697;BME280;60662;48.810;8.872;2024-02-23T09:28:16;94833.94;;;7.90;62.23
3697;BME280;60662;48.810;8.872;2024-02-23T09:29:18;94824.28;;;7.35;64.76
3697;BME280;60662;48.810;8.872;2024-02-23T09:30:19;94825.75;;;7.40;66.33
3697;BME280;60662;48.810;8.872;2024-02-23T09:31:21;94838.28;;;7.47;65.80
3697;BME280;60662;48.810;8.872;2024-02-23T09:32:22;94823.72;;;7.16;66.12
3697;BME280;60662;48.810;8.872;2024-02-23T09:33:24;94830.19;;;6.80;66.09
3697;BME280;60662;48.810;8.872;2024-02-23T09:34:26;94822.84;;;6.72;66.36
3697;BME280;60662;48.810;8.872;2024-02-23T09:35:28;94821.75;;;6.46;67.96
3697;BME280;60662;48.810;8.872;2024-02-23T09:36:29;94827.50;;;6.20;68.54
3697;BME280;60662;48.810;8.872;2024-02-23T09:37:31;94817.81;;;6.08;69.34
3697;BME280;60662;48.810;8.872;2024-02-23T09:38:33;94830.63;;;6.42;69.21
3697;BME280;60662;48.810;8.872;2024-02-23T09:39:34;94818.13;;;6.18;69.27
3697;BME280;60662;48.810;8.872;2024-02-23T09:40:36;94822.59;;;6.16;69.57
3697;BME280;60662;48.810;8.872;2024-02-23T09:41:39;94829.06;;;6.23;70.47
3697;BME280;60662;48.810;8.872;2024-02-23T09:42:41;94820.16;;;6.13;72.36
3697;BME280;60662;48.810;8.872;2024-02-23T09:43:44;94835.84;;;5.94;72.32
3697;BME280;60662;48.810;8.872;2024-02-23T09:44:48;94830.00;;;5.58;72.01
3697;BME280;60662;48.810;8.872;2024-02-23T09:45:53;94821.88;;;5.32;73.96
3697;BME280;60662;48.810;8.872;2024-02-23T09:46:55;94827.41;;;5.42;73.77
3697;BME280;60662;48.810;8.872;2024-02-23T09:47:57;94831.38;;;5.16;74.81
3697;BME280;60662;48.810;8.872;2024-02-23T09:49:00;94825.47;;;5.30;75.16
3697;BME280;60662;48.810;8.872;2024-02-23T09:50:06;94837.41;;;4.99;74.92
3697;BME280;60662;48.810;8.872;2024-02-23T09:51:09;94845.66;;;4.89;75.04
3697;BME280;60662;48.810;8.872;2024-02-23T09:52:12;94834.53;;;4.87;74.97
3697;BME280;60662;48.810;8.872;2024-02-23T09:53:14;94833.03;;;4.66;75.74
3697;BME280;60662;48.810;8.872;2024-02-23T09:54:15;94835.69;;;4.64;76.59
3697;BME280;60662;48.810;8.872;2024-02-23T09:55:23;94842.47;;;4.67;77.62
3697;BME280;60662;48.810;8.872;2024-02-23T09:56:27;94839.75;;;4.70;76.82
3697;BME280;60662;48.810;8.872;2024-02-23T09:57:30;94844.31;;;4.65;76.81
3697;BME280;60662;48.810;8.872;2024-02-23T09:58:32;94821.88;;;4.48;77.24
3697;BME280;60662;48.810;8.872;2024-02-23T09:59:35;94837.97;;;4.70;77.52
3697;BME280;60662;48.810;8.872;2024-02-23T10:00:38;94818.69;;;4.60;77.88
3697;BME280;60662;48.810;8.872;2024-02-23T10:01:39;94837.91;;;4.72;78.30
3697;BME280;60662;48.810;8.872;2024-02-23T10:02:42;94837.28;;;4.67;77.87
3697;BME280;60662;48.810;8.872;2024-02-23T10:03:44;94835.31;;;4.54;78.04
3697;BME280;60662;48.810;8.872;2024-02-23T10:04:47;94839.81;;;4.51;78.08
3697;BME280;60662;48.810;8.872;2024-02-23T10:05:49;94839.66;;;4.54;79.16
3697;BME280;60662;48.810;8.872;2024-02-23T10:06:51;94846.97;;;4.46;78.61
3697;BME280;60662;48.810;8.872;2024-02-23T10:07:52;94837.38;;;4.13;79.32
3697;BME280;60662;48.810;8.872;2024-02-23T10:08:55;94848.03;;;4.05;80.17
3697;BME280;60662;48.810;8.872;2024-02-23T10:14:41;94848.81;;;4.07;80.92
3697;BME280;60662;48.810;8.872;2024-02-23T10:15:43;94837.78;;;4.03;81.47
3697;BME280;60662;48.810;8.872;2024-02-23T10:17:06;94842.81;;;4.24;80.34
3697;BME280;60662;48.810;8.872;2024-02-23T10:18:08;94834.78;;;4.13;80.36
3697;BME280;60662;48.810;8.872;2024-02-23T10:19:09;94838.69;;;4.02;80.21
3697;BME280;60662;48.810;8.872;2024-02-23T10:20:11;94840.81;;;3.94;80.34
3697;BME280;60662;48.810;8.872;2024-02-23T10:21:12;94835.06;;;4.06;80.10
3697;BME280;60662;48.810;8.872;2024-02-23T10:22:14;94842.22;;;4.01;80.30
3697;BME280;60662;48.810;8.872;2024-02-23T10:23:15;94845.00;;;4.51;79.87
3697;BME280;60662;48.810;8.872;2024-02-23T10:24:19;94840.19;;;4.78;78.33
3697;BME280;60662;48.810;8.872;2024-02-23T10:25:20;94837.91;;;4.72;78.19
3697;BME280;60662;48.810;8.872;2024-02-23T10:26:22;94837.72;;;4.93;77.19
3697;BME280;60662;48.810;8.872;2024-02-23T10:27:24;94800.09;;;4.87;76.01
3697;BME280;60662;48.810;8.872;2024-02-23T10:28:26;94846.56;;;5.71;74.86
3697;BME280;60662;48.810;8.872;2024-02-23T10:29:30;94845.13;;;6.30;73.86
3697;BME280;60662;48.810;8.872;2024-02-23T10:30:31;94850.47;;;6.43;72.43
3697;BME280;60662;48.810;8.872;2024-02-23T10:31:35;94848.66;;;5.97;72.68
3697;BME280;60662;48.810;8.872;2024-02-23T10:32:41;94843.69;;;6.70;72.40
3697;BME280;60662;48.810;8.872;2024-02-23T10:33:44;94844.00;;;6.95;70.47
3697;BME280;60662;48.810;8.872;2024-02-23T10:34:47;94848.00;;;6.09;70.39
3697;BME280;60662;48.810;8.872;2024-02-23T10:35:56;94850.56;;;5.61;73.91
3697;BME280;60662;48.810;8.872;2024-02-23T10:36:59;94841.44;;;5.70;74.19
3697;BME280;60662;48.810;8.872;2024-02-23T10:38:01;94846.72;;;5.19;74.39
3697;BME280;60662;48.810;8.872;2024-02-23T10:39:03;94850.59;;;5.28;75.15
3697;BME280;60662;48.810;8.872;2024-02-23T10:40:07;94876.97;;;5.18;74.55
3697;BME280;60662;48.810;8.872;2024-02-23T10:41:13;94860.47;;;5.03;75.68
3697;BME280;60662;48.810;8.872;2024-02-23T10:42:17;94852.13;;;4.63;76.01
3697;BME280;60662;48.810;8.872;2024-02-23T10:43:29;94862.53;;;4.62;76.61
3697;BME280;60662;48.810;8.872;2024-02-23T10:44:31;94849.09;;;4.55;76.62
3697;BME280;60662;48.810;8.872;2024-02-23T10:45:34;94842.53;;;4.48;76.94
3697;BME280;60662;48.810;8.872;2024-02-23T10:46:37;94855.41;;;4.32;77.95
3697;BME280;60662;48.810;8.872;2024-02-23T10:47:42;94844.38;;;4.46;77.59
3697;BME280;60662;48.810;8.872;2024-02-23T10:48:44;94832.50;;;4.41;77.24
3697;BME280;60662;48.810;8.872;2024-02-23T10:49:47;94851.81;;;4.52;77.02
3697;BME280;60662;48.810;8.872;2024-02-23T10:50:48;94850.47;;;4.45;77.42
3697;BME280;60662;48.810;8.872;2024-02-23T10:51:51;94840.50;;;4.37;77.31
3697;BME280;60662;48.810;8.872;2024-02-23T10:52:53;94843.53;;;4.45;77.71
3697;BME280;60662;48.810;8.872;2024-02-23T10:53:55;94842.47;;;4.32;77.63
3697;BME280;60662;48.810;8.872;2024-02-23T10:55:00;94850.31;;;4.48;76.74
3697;BME280;60662;48.810;8.872;2024-02-23T10:56:03;94860.72;;;4.64;77.30
3697;BME280;60662;48.810;8.872;2024-02-23T10:57:06;94844.97;;;4.68;76.90
3697;BME280;60662;48.810;8.872;2024-02-23T10:58:08;94848.63;;;4.64;76.97
3697;BME280;60662;48.810;8.872;2024-02-23T10:59:12;94848.25;;;4.72;77.02
3697;BME280;60662;48.810;8.872;2024-02-23T11:00:14;94849.09;;;4.72;77.20
3697;BME280;60662;48.810;8.872;2024-02-23T11:01:18;94852.69;;;4.70;77.15
3697;BME280;60662;48.810;8.872;2024-02-23T11:02:20;94854.03;;;4.77;77.11
3697;BME280;60662;48.810;8.872;2024-02-23T11:03:23;94853.28;;;4.75;77.37
3697;BME280;60662;48.810;8.872;2024-02-23T11:04:26;94851.97;;;4.84;77.01
3697;BME280;60662;48.810;8.872;2024-02-23T11:05:28;94846.94;;;4.81;77.09
3697;BME280;60662;48.810;8.872;2024-02-23T11:06:30;94843.06;;;4.89;77.41
3697;BME280;60662;48.810;8.872;2024-02-23T11:07:38;94848.84;;;4.60;76.38
3697;BME280;60662;48.810;8.872;2024-02-23T11:08:39;94843.00;;;4.73;76.43
3697;BME280;60662;48.810;8.872;2024-02-23T11:09:41;94829.53;;;4.67;75.81
3697;BME280;60662;48.810;8.872;2024-02-23T11:10:50;94830.63;;;4.63;76.05
3697;BME280;60662;48.810;8.872;2024-02-23T11:11:56;94834.00;;;4.81;76.28
3697;BME280;60662;48.810;8.872;2024-02-23T11:13:02;94836.22;;;4.88;75.42
3697;BME280;60662;48.810;8.872;2024-02-23T11:14:07;94832.13;;;4.84;75.61
3697;BME280;60662;48.810;8.872;2024-02-23T11:15:26;94818.13;;;4.71;75.65
3697;BME280;60662;48.810;8.872;2024-02-23T11:16:28;94818.72;;;4.76;75.67
3697;BME280;60662;48.810;8.872;2024-02-23T11:17:31;94821.09;;;4.81;75.82
3697;BME280;60662;48.810;8.872;2024-02-23T11:18:35;94831.00;;;4.72;74.75
3697;BME280;60662;48.810;8.872;2024-02-23T11:19:39;94828.94;;;4.79;75.57
3697;BME280;60662;48.810;8.872;2024-02-23T11:20:41;94799.97;;;4.72;74.96
3697;BME280;60662;48.810;8.872;2024-02-23T11:21:52;94828.47;;;4.71;75.48
3697;BME280;60662;48.810;8.872;2024-02-23T11:22:54;94786.53;;;4.48;74.96
3697;BME280;60662;48.810;8.872;2024-02-23T11:23:55;94826.47;;;4.76;75.32
3697;BME280;60662;48.810;8.872;2024-02-23T11:28:51;94829.34;;;4.87;74.69
3697;BME280;60662;48.810;8.872;2024-02-23T11:30:05;94832.13;;;4.84;73.80
3697;BME280;60662;48.810;8.872;2024-02-23T11:31:14;94836.53;;;4.82;74.49
3697;BME280;60662;48.810;8.872;2024-02-23T11:32:16;94837.47;;;4.81;75.12
3697;BME280;60662;48.810;8.872;2024-02-23T11:33:26;94840.03;;;4.81;74.40
3697;BME280;60662;48.810;8.872;2024-02-23T11:34:28;94817.13;;;4.73;75.34
3697;BME280;60662;48.810;8.872;2024-02-23T11:35:29;94813.28;;;4.65;75.16
3697;BME280;60662;48.810;8.872;2024-02-23T11:38:32;94824.88;;;4.91;74.66
3697;BME280;60662;48.810;8.872;2024-02-23T11:39:34;94828.59;;;5.03;74.49
3697;BME280;60662;48.810;8.872;2024-02-23T11:40:37;94825.28;;;5.17;74.08
3697;BME280;60662;48.810;8.872;2024-02-23T11:41:39;94814.41;;;5.10;74.21
3697;BME280;60662;48.810;8.872;2024-02-23T11:42:41;94824.06;;;5.06;73.59
3697;BME280;60662;48.810;8.872;2024-02-23T11:43:44;94822.56;;;5.02;73.59
3697;BME280;60662;48.810;8.872;2024-02-23T11:44:49;94827.19;;;5.13;74.21
3697;BME280;60662;48.810;8.872;2024-02-23T11:47:19;94805.97;;;5.06;74.96
3697;BME280;60662;48.810;8.872;2024-02-23T11:50:12;94822.81;;;5.31;74.34
3697;BME280;60662;48.810;8.872;2024-02-23T11:52:47;94808.22;;;4.97;74.36
3697;BME280;60662;48.810;8.872;2024-02-23T11:53:49;94811.81;;;5.10;74.73
3697;BME280;60662;48.810;8.872;2024-02-23T11:54:51;94816.34;;;5.22;74.63
3697;BME280;60662;48.810;8.872;2024-02-23T11:55:53;94828.56;;;5.36;73.98
3697;BME280;60662;48.810;8.872;2024-02-23T11:56:54;94821.88;;;5.32;73.12
3697;BME280;60662;48.810;8.872;2024-02-23T11:57:56;94825.47;;;5.30;73.91
3697;BME280;60662;48.810;8.872;2024-02-23T11:59:08;94815.91;;;5.64;73.52
3697;BME280;60662;48.810;8.872;2024-02-23T12:00:11;94806.78;;;5.88;72.71
3697;BME280;60662;48.810;8.872;2024-02-23T12:01:13;94811.47;;;5.82;72.78
3697;BME280;60662;48.810;8.872;2024-02-23T12:02:14;94814.06;;;5.82;72.11
3697;BME280;60662;48.810;8.872;2024-02-23T12:03:16;94820.59;;;5.73;71.37
3697;BME280;60662;48.810;8.872;2024-02-23T12:04:18;94807.53;;;5.91;71.68
3697;BME280;60662;48.810;8.872;2024-02-23T12:05:20;94815.22;;;5.92;71.67
3697;BME280;60662;48.810;8.872;2024-02-23T12:06:22;94804.00;;;5.92;72.11
3697;BME280;60662;48.810;8.872;2024-02-23T12:07:23;94806.22;;;5.99;71.68
3697;BME280;60662;48.810;8.872;2024-02-23T12:08:30;94790.84;;;5.80;72.03
3697;BME280;60662;48.810;8.872;2024-02-23T12:09:42;94802.09;;;5.95;72.12
3697;BME280;60662;48.810;8.872;2024-02-23T12:10:44;94795.72;;;6.17;72.04
3697;BME280;60662;48.810;8.872;2024-02-23T12:11:46;94801.53;;;6.06;71.61
3697;BME280;60662;48.810;8.872;2024-02-23T12:12:48;94800.09;;;6.16;71.69
3697;BME280;60662;48.810;8.872;2024-02-23T12:13:50;94795.38;;;6.23;71.77
3697;BME280;60662;48.810;8.872;2024-02-23T12:14:53;94801.00;;;6.15;71.10
3697;BME280;60662;48.810;8.872;2024-02-23T12:15:54;94794.91;;;6.00;71.41
3697;BME280;60662;48.810;8.872;2024-02-23T12:16:57;94804.22;;;6.04;71.36
3697;BME280;60662;48.810;8.872;2024-02-23T12:17:59;94802.59;;;6.18;71.29
3697;BME280;60662;48.810;8.872;2024-02-23T12:19:03;94794.31;;;6.27;71.13
3697;BME280;60662;48.810;8.872;2024-02-23T12:20:07;94796.13;;;6.25;71.18
3697;BME280;60662;48.810;8.872;2024-02-23T12:21:09;94808.25;;;6.55;70.30
3697;BME280;60662;48.810;8.872;2024-02-23T12:22:11;94800.06;;;6.32;69.63
3697;BME280;60662;48.810;8.872;2024-02-23T12:23:13;94790.53;;;6.17;70.26
3697;BME280;60662;48.810;8.872;2024-02-23T12:24:15;94800.53;;;6.09;70.84
3697;BME280;60662;48.810;8.872;2024-02-23T12:25:17;94795.00;;;6.15;71.32
3697;BME280;60662;48.810;8.872;2024-02-23T12:26:19;94791.41;;;6.17;72.39
3697;BME280;60662;48.810;8.872;2024-02-23T12:27:20;94794.47;;;6.08;71.50
3697;BME280;60662;48.810;8.872;2024-02-23T12:28:24;94799.91;;;5.87;71.25
3697;BME280;60662;48.810;8.872;2024-02-23T12:29:25;94792.06;;;5.89;71.95
3697;BME280;60662;48.810;8.872;2024-02-23T12:30:29;94799.00;;;5.88;71.93
3697;BME280;60662;48.810;8.872;2024-02-23T12:31:32;94792.19;;;5.71;72.32
3697;BME280;60662;48.810;8.872;2024-02-23T12:36:36;94777.88;;;5.48;73.65
3697;BME280;60662;48.810;8.872;2024-02-23T12:40:21;94796.53;;;5.55;73.87
3697;BME280;60662;48.810;8.872;2024-02-23T12:43:25;94800.19;;;5.51;74.08
3697;BME280;60662;48.810;8.872;2024-02-23T12:44:27;94797.03;;;5.62;73.83
3697;BME280;60662;48.810;8.872;2024-02-23T12:45:28;94799.88;;;5.73;73.53
3697;BME280;60662;48.810;8.872;2024-02-23T12:46:30;94790.75;;;5.66;73.50
3697;BME280;60662;48.810;8.872;2024-02-23T12:47:31;94793.25;;;5.67;73.09
3697;BME280;60662;48.810;8.872;2024-02-23T12:48:33;94792.66;;;5.62;73.10
3697;BME280;60662;48.810;8.872;2024-02-23T12:49:35;94795.59;;;5.72;73.77
3697;BME280;60662;48.810;8.872;2024-02-23T12:50:36;94792.34;;;5.68;73.56
3697;BME280;60662;48.810;8.872;2024-02-23T12:51:38;94797.03;;;5.78;73.62
3697;BME280;60662;48.810;8.872;2024-02-23T12:52:39;94793.25;;;5.67;73.07
3697;BME280;60662;48.810;8.872;2024-02-23T12:53:41;94794.78;;;5.71;73.62
3697;BME280;60662;48.810;8.872;2024-02-23T12:56:30;94801.59;;;5.72;73.78
3697;BME280;60662;48.810;8.872;2024-02-23T12:59:18;94793.75;;;5.58;74.40
3697;BME280;60662;48.810;8.872;2024-02-23T13:02:06;94803.38;;;5.72;72.74
3697;BME280;60662;48.810;8.872;2024-02-23T13:04:56;94802.03;;;5.65;72.46
3697;BME280;60662;48.810;8.872;2024-02-23T13:05:58;94804.19;;;5.72;72.52
3697;BME280;60662;48.810;8.872;2024-02-23T13:07:00;94797.50;;;5.68;72.08
3697;BME280;60662;48.810;8.872;2024-02-23T13:08:02;94782.81;;;5.69;71.76
3697;BME280;60662;48.810;8.872;2024-02-23T13:09:04;94778.38;;;5.71;71.50
3697;BME280;60662;48.810;8.872;2024-02-23T13:10:06;94806.28;;;5.82;71.44
3697;BME280;60662;48.810;8.872;2024-02-23T13:11:08;94813.31;;;5.96;71.87
3697;BME280;60662;48.810;8.872;2024-02-23T13:13:31;94808.22;;;5.94;71.13
3697;BME280;60662;48.810;8.872;2024-02-23T13:44:16;94786.81;;;5.59;72.95
3697;BME280;60662;48.810;8.872;2024-02-23T13:46:42;94777.63;;;5.53;72.42
3697;BME280;60662;48.810;8.872;2024-02-23T13:47:58;94778.06;;;5.61;71.67
3697;BME280;60662;48.810;8.872;2024-02-23T13:49:07;94777.78;;;5.66;71.28
3697;BME280;60662;48.810;8.872;2024-02-23T13:50:10;94768.19;;;5.68;71.45
3697;BME280;60662;48.810;8.872;2024-02-23T13:52:38;94760.91;;;5.75;71.49
3697;BME280;60662;48.810;8.872;2024-02-23T13:56:42;94757.75;;;5.69;70.98
3697;BME280;60662;48.810;8.872;2024-02-23T13:59:07;94738.88;;;5.67;71.80
3697;BME280;60662;48.810;8.872;2024-02-23T14:00:09;94744.91;;;5.68;71.26
3697;BME280;60662;48.810;8.872;2024-02-23T14:01:14;94752.47;;;5.71;71.39
3697;BME280;60662;48.810;8.872;2024-02-23T14:02:16;94748.06;;;5.73;71.06
3697;BME280;60662;48.810;8.872;2024-02-23T14:03:17;94741.38;;;5.69;71.26
3697;BME280;60662;48.810;8.872;2024-02-23T14:04:19;94737.19;;;5.98;71.08
3697;BME280;60662;48.810;8.872;2024-02-23T14:05:21;94746.75;;;6.43;70.65
3697;BME280;60662;48.810;8.872;2024-02-23T14:06:23;94733.09;;;6.98;69.01
3697;BME280;60662;48.810;8.872;2024-02-23T14:07:25;94747.94;;;7.80;66.36
3697;BME280;60662;48.810;8.872;2024-02-23T14:08:26;94730.06;;;8.15;64.63
3697;BME280;60662;48.810;8.872;2024-02-23T14:09:28;94731.50;;;8.47;64.17
3697;BME280;60662;48.810;8.872;2024-02-23T14:10:29;94723.59;;;8.74;62.67
3697;BME280;60662;48.810;8.872;2024-02-23T14:11:30;94723.16;;;8.42;63.90
3697;BME280;60662;48.810;8.872;2024-02-23T14:12:32;94722.00;;;7.65;64.84
3697;BME280;60662;48.810;8.872;2024-02-23T14:13:34;94729.50;;;7.28;65.84
3697;BME280;60662;48.810;8.872;2024-02-23T14:14:36;94721.41;;;6.91;66.79
3697;BME280;60662;48.810;8.872;2024-02-23T14:15:37;94729.19;;;6.77;68.02
3697;BME280;60662;48.810;8.872;2024-02-23T14:16:39;94713.75;;;6.45;68.00
3697;BME280;60662;48.810;8.872;2024-02-23T14:17:41;94727.13;;;6.53;68.87
3697;BME280;60662;48.810;8.872;2024-02-23T14:18:42;94723.78;;;6.36;68.81
3697;BME280;60662;48.810;8.872;2024-02-23T14:19:46;94728.03;;;6.37;69.74
3697;BME280;60662;48.810;8.872;2024-02-23T14:20:47;94723.06;;;6.49;69.91
3697;BME280;60662;48.810;8.872;2024-02-23T14:21:49;94715.28;;;6.49;70.11
3697;BME280;60662;48.810;8.872;2024-02-23T14:22:51;94729.16;;;7.06;68.84
3697;BME280;60662;48.810;8.872;2024-02-23T14:23:54;94728.44;;;6.75;68.40
3697;BME280;60662;48.810;8.872;2024-02-23T14:24:55;94723.88;;;6.64;68.77
3697;BME280;60662;48.810;8.872;2024-02-23T14:25:57;94727.78;;;6.57;68.17
3697;BME280;60662;48.810;8.872;2024-02-23T14:26:58;94736.38;;;6.57;68.72
3697;BME280;60662;48.810;8.872;2024-02-23T14:28:00;94731.84;;;6.61;68.83
3697;BME280;60662;48.810;8.872;2024-02-23T14:29:01;94728.06;;;6.81;68.71
3697;BME280;60662;48.810;8.872;2024-02-23T14:30:03;94735.84;;;6.66;68.25
3697;BME280;60662;48.810;8.872;2024-02-23T14:31:05;94721.28;;;6.49;68.36
3697;BME280;60662;48.810;8.872;2024-02-23T14:32:07;94724.34;;;6.56;68.70
3697;BME280;60662;48.810;8.872;2024-02-23T14:33:08;94728.69;;;6.56;68.45
3697;BME280;60662;48.810;8.872;2024-02-23T14:34:10;94727.09;;;6.38;68.53
3697;BME280;60662;48.810;8.872;2024-02-23T14:35:11;94729.97;;;6.34;69.81
3697;BME280;60662;48.810;8.872;2024-02-23T14:36:13;94721.47;;;6.46;69.79
3697;BME280;60662;48.810;8.872;2024-02-23T14:37:14;94738.88;;;6.44;69.72
3697;BME280;60662;48.810;8.872;2024-02-23T14:43:09;94736.88;;;6.19;70.22
3697;BME280;60662;48.810;8.872;2024-02-23T15:06:34;94751.75;;;5.69;72.40
3697;BME280;60662;48.810;8.872;2024-02-23T15:07:37;94751.66;;;5.70;72.47
3697;BME280;60662;48.810;8.872;2024-02-23T15:08:38;94742.69;;;5.76;72.22
3697;BME280;60662;48.810;8.872;2024-02-23T15:09:40;94745.03;;;5.81;73.73
3697;BME280;60662;48.810;8.872;2024-02-23T15:10:42;94745.03;;;5.81;73.92
3697;BME280;60662;48.810;8.872;2024-02-23T15:11:43;94761.47;;;5.96;71.39
3697;BME280;60662;48.810;8.872;2024-02-23T15:12:45;94740.84;;;6.69;70.03
3697;BME280;60662;48.810;8.872;2024-02-23T15:13:47;94755.69;;;7.25;68.69
3697;BME280;60662;48.810;8.872;2024-02-23T15:14:48;94752.13;;;7.68;67.73
3697;BME280;60662;48.810;8.872;2024-02-23T15:15:50;94746.97;;;7.95;67.48
3697;BME280;60662;48.810;8.872;2024-02-23T15:16:52;94743.88;;;7.76;66.61
3697;BME280;60662;48.810;8.872;2024-02-23T15:17:53;94736.22;;;7.87;67.15
3697;BME280;60662;48.810;8.872;2024-02-23T15:18:56;94752.00;;;8.11;66.71
3697;BME280;60662;48.810;8.872;2024-02-23T15:19:59;94748.66;;;7.55;67.70